createdAt,value
2022-11-23T00:01:35.935Z,2.36
2022-11-23T00:04:12.627Z,2.30
2022-11-23T00:06:41.207Z,2.31
2022-11-23T00:09:11.646Z,2.25
2022-11-23T00:11:39.433Z,2.23
2022-11-23T00:14:07.496Z,2.31
2022-11-23T00:16:50.657Z,2.08
2022-11-23T00:19:18.623Z,2.15
2022-11-23T00:21:46.329Z,2.02
2022-11-23T00:24:14.336Z,2.04
2022-11-23T00:26:42.045Z,1.98
2022-11-23T00:29:10.087Z,2.15
2022-11-23T00:31:38.423Z,2.21
2022-11-23T00:34:08.228Z,2.37
2022-11-23T00:36:35.876Z,2.28
2022-11-23T00:39:03.997Z,2.29
2022-11-23T00:41:31.651Z,2.08
2022-11-23T00:43:59.669Z,2.19
2022-11-23T00:46:28.753Z,2.19
2022-11-23T00:48:58.916Z,2.08
2022-11-23T00:51:32.694Z,2.24
2022-11-23T00:54:01.566Z,2.15
2022-11-23T00:56:30.397Z,2.20
2022-11-23T00:59:00.457Z,2.13
2022-11-23T01:01:33.757Z,2.10
2022-11-23T01:04:03.954Z,2.14
2022-11-23T01:06:38.199Z,2.08
2022-11-23T01:09:12.116Z,2.04
2022-11-23T01:11:39.954Z,2.03
2022-11-23T01:14:07.888Z,1.99
2022-11-23T01:16:38.420Z,2.06
2022-11-23T01:19:11.714Z,2.01
2022-11-23T01:21:39.882Z,2.05
2022-11-23T01:24:26.456Z,1.97
2022-11-23T01:26:55.465Z,1.96
2022-11-23T01:29:24.648Z,2.09
2022-11-23T01:31:52.318Z,2.04
2022-11-23T01:34:20.304Z,2.09
2022-11-23T01:36:48.096Z,2.10
2022-11-23T01:39:16.010Z,1.92
2022-11-23T01:41:45.486Z,2.02
2022-11-23T01:44:34.887Z,2.00
2022-11-23T01:47:08.655Z,1.97
2022-11-23T01:49:42.937Z,1.96
2022-11-23T01:52:12.857Z,2.03
2022-11-23T01:54:54.927Z,1.78
2022-11-23T01:57:34.435Z,1.91
2022-11-23T02:00:02.879Z,1.92
2022-11-23T02:02:47.715Z,2.02
2022-11-23T02:05:18.668Z,1.90
2022-11-23T02:07:49.372Z,2.06
2022-11-23T02:10:18.237Z,2.10
2022-11-23T02:12:46.489Z,1.95
2022-11-23T02:15:14.733Z,2.01
2022-11-23T02:17:44.199Z,1.93
2022-11-23T02:20:17.696Z,1.89
2022-11-23T02:23:06.745Z,2.00
2022-11-23T02:25:43.147Z,2.07
2022-11-23T02:28:15.010Z,2.03
2022-11-23T02:30:44.296Z,2.02
2022-11-23T02:33:12.033Z,1.93
2022-11-23T02:35:54.874Z,1.90
2022-11-23T02:38:25.557Z,2.02
2022-11-23T02:40:53.707Z,1.91
2022-11-23T02:43:35.702Z,1.88
2022-11-23T02:46:05.575Z,1.84
2022-11-23T02:48:33.303Z,1.85
2022-11-23T02:51:04.610Z,1.77
2022-11-23T02:53:33.259Z,1.89
2022-11-23T02:56:01.194Z,1.85
2022-11-23T02:58:28.967Z,1.79
2022-11-23T03:00:56.931Z,1.84
2022-11-23T03:03:24.821Z,1.82
2022-11-23T03:05:52.755Z,1.77
2022-11-23T03:08:20.426Z,1.65
2022-11-23T03:10:49.547Z,1.76
2022-11-23T03:13:17.244Z,1.83
2022-11-23T03:15:45.565Z,1.64
2022-11-23T03:18:13.539Z,1.65
2022-11-23T03:20:41.543Z,1.62
2022-11-23T03:23:09.221Z,1.74
2022-11-23T03:25:37.199Z,1.88
2022-11-23T03:28:06.517Z,1.78
2022-11-23T03:30:35.339Z,1.76
2022-11-23T03:33:05.411Z,1.90
2022-11-23T03:35:33.421Z,1.80
2022-11-23T03:38:18.770Z,1.72
2022-11-23T03:40:47.736Z,1.70
2022-11-23T03:43:26.579Z,1.70
2022-11-23T03:45:54.570Z,1.70
2022-11-23T03:48:23.582Z,1.72
2022-11-23T03:50:52.184Z,1.61
2022-11-23T03:53:19.932Z,1.59
2022-11-23T03:55:48.192Z,1.51
2022-11-23T03:58:16.338Z,1.48
2022-11-23T04:00:44.431Z,1.57
2022-11-23T04:03:15.532Z,1.49
2022-11-23T04:06:02.500Z,1.55
2022-11-23T04:08:48.463Z,1.51
2022-11-23T04:11:24.282Z,1.50
2022-11-23T04:13:52.003Z,1.47
2022-11-23T04:16:20.728Z,1.39
2022-11-23T04:18:48.620Z,1.65
2022-11-23T04:21:17.424Z,1.46
2022-11-23T04:23:45.423Z,1.43
2022-11-23T04:26:15.704Z,1.54
2022-11-23T04:28:46.310Z,1.58
2022-11-23T04:31:14.816Z,1.64
2022-11-23T04:33:58.755Z,1.55
2022-11-23T04:36:28.139Z,1.62
2022-11-23T04:38:56.330Z,1.58
2022-11-23T04:41:34.290Z,1.40
2022-11-23T04:44:04.265Z,1.54
2022-11-23T04:46:32.325Z,1.46
2022-11-23T04:49:01.279Z,1.54
2022-11-23T04:51:29.382Z,1.55
2022-11-23T04:53:57.284Z,1.46
2022-11-23T04:56:28.632Z,1.42
2022-11-23T04:58:56.418Z,1.49
2022-11-23T05:01:25.350Z,1.51
2022-11-23T05:04:33.212Z,1.36
2022-11-23T05:07:02.064Z,1.44
2022-11-23T05:09:32.416Z,1.44
2022-11-23T05:12:11.614Z,1.34
2022-11-23T05:14:42.957Z,1.30
2022-11-23T05:17:12.379Z,1.38
2022-11-23T05:19:42.031Z,1.34
2022-11-23T05:22:10.109Z,1.50
2022-11-23T05:24:41.264Z,1.44
2022-11-23T05:27:12.008Z,1.51
2022-11-23T05:29:40.107Z,1.45
2022-11-23T05:32:08.990Z,1.35
2022-11-23T05:34:36.703Z,1.43
2022-11-23T05:37:05.904Z,1.37
2022-11-23T05:39:34.351Z,1.17
2022-11-23T05:42:02.647Z,1.21
2022-11-23T05:44:35.038Z,1.25
2022-11-23T05:47:05.500Z,1.12
2022-11-23T05:49:35.359Z,1.09
2022-11-23T05:52:06.201Z,1.24
2022-11-23T05:54:36.241Z,1.23
2022-11-23T05:57:09.218Z,1.19
2022-11-23T05:59:39.889Z,1.21
2022-11-23T06:02:11.779Z,1.24
2022-11-23T06:04:39.546Z,1.22
2022-11-23T06:07:11.765Z,1.32
2022-11-23T06:10:09.072Z,1.40
2022-11-23T06:12:41.031Z,1.34
2022-11-23T06:15:13.720Z,1.28
2022-11-23T06:17:42.399Z,1.18
2022-11-23T06:20:15.868Z,1.33
2022-11-23T06:22:53.853Z,1.25
2022-11-23T06:25:23.916Z,1.24
2022-11-23T06:28:01.428Z,1.38
2022-11-23T06:30:37.003Z,1.27
2022-11-23T06:33:08.205Z,1.17
2022-11-23T06:35:43.016Z,1.16
2022-11-23T06:38:11.563Z,1.05
2022-11-23T06:40:39.964Z,1.07
2022-11-23T06:43:09.059Z,1.06
2022-11-23T06:45:43.136Z,0.99
2022-11-23T06:48:15.087Z,0.89
2022-11-23T06:50:46.891Z,1.03
2022-11-23T06:53:16.680Z,0.99
2022-11-23T06:55:49.021Z,0.93
2022-11-23T06:58:19.655Z,0.86
2022-11-23T07:00:47.580Z,0.94
2022-11-23T07:03:24.197Z,0.94
2022-11-23T07:06:10.840Z,0.82
2022-11-23T07:08:43.391Z,0.82
2022-11-23T07:11:33.918Z,0.80
2022-11-23T07:14:01.979Z,0.88
2022-11-23T07:16:31.402Z,0.79
2022-11-23T07:18:59.518Z,0.93
2022-11-23T07:21:27.320Z,0.86
2022-11-23T07:23:55.864Z,0.93
2022-11-23T07:26:23.650Z,0.86
2022-11-23T07:28:51.543Z,0.88
2022-11-23T07:31:19.691Z,0.78
2022-11-23T07:33:47.922Z,0.90
2022-11-23T07:36:15.693Z,0.93
2022-11-23T07:38:45.978Z,1.06
2022-11-23T07:41:16.251Z,1.06
2022-11-23T07:44:07.200Z,0.85
2022-11-23T07:46:35.057Z,0.99
2022-11-23T07:49:03.168Z,1.07
2022-11-23T07:51:31.076Z,1.04
2022-11-23T07:53:59.030Z,0.92
2022-11-23T07:56:26.700Z,1.00
2022-11-23T07:58:54.607Z,0.95
2022-11-23T08:01:22.391Z,1.01
2022-11-23T08:03:50.455Z,0.98
2022-11-23T08:06:18.290Z,0.89
2022-11-23T08:08:46.380Z,0.94
2022-11-23T08:11:20.761Z,0.94
2022-11-23T08:13:49.001Z,1.00
2022-11-23T08:16:16.715Z,0.98
2022-11-23T08:18:44.699Z,1.08
2022-11-23T08:21:12.555Z,0.98
2022-11-23T08:23:40.540Z,1.02
2022-11-23T08:26:13.447Z,1.14
2022-11-23T08:28:42.265Z,0.90
2022-11-23T08:31:11.734Z,1.15
2022-11-23T08:33:40.719Z,1.17
2022-11-23T08:36:09.095Z,1.02
2022-11-23T08:38:37.181Z,1.05
2022-11-23T08:41:05.713Z,1.06
2022-11-23T08:43:34.916Z,1.19
2022-11-23T08:46:07.937Z,1.17
2022-11-23T08:48:38.832Z,1.14
2022-11-23T08:51:07.152Z,1.15
2022-11-23T08:53:35.174Z,1.24
2022-11-23T08:56:07.497Z,1.24
2022-11-23T08:58:36.902Z,1.29
2022-11-23T09:01:09.570Z,1.46
2022-11-23T09:03:37.764Z,1.31
2022-11-23T09:06:05.608Z,1.33
2022-11-23T09:08:33.882Z,1.49
2022-11-23T09:11:02.835Z,1.52
2022-11-23T09:13:31.393Z,1.45
2022-11-23T09:16:03.484Z,1.31
2022-11-23T09:18:33.251Z,1.37
2022-11-23T09:21:04.381Z,1.46
2022-11-23T09:23:32.862Z,1.48
2022-11-23T09:26:01.610Z,1.42
2022-11-23T09:28:29.934Z,1.53
2022-11-23T09:30:57.995Z,1.57
2022-11-23T09:33:26.305Z,1.83
2022-11-23T09:35:59.253Z,1.90
2022-11-23T09:38:51.486Z,2.06
2022-11-23T09:41:37.645Z,2.13
2022-11-23T09:44:14.056Z,2.06
2022-11-23T09:47:19.346Z,2.16
2022-11-23T09:50:11.392Z,2.14
2022-11-23T09:52:44.173Z,2.26
2022-11-23T09:55:41.934Z,1.81
2022-11-23T09:58:16.108Z,1.72
2022-11-23T10:01:02.015Z,1.92
2022-11-23T10:03:34.470Z,1.88
2022-11-23T10:06:06.462Z,1.94
2022-11-23T10:09:24.826Z,1.94
2022-11-23T10:12:16.701Z,2.04
2022-11-23T10:14:59.736Z,1.91
2022-11-23T10:17:43.297Z,1.88
2022-11-23T10:20:17.414Z,1.70
2022-11-23T10:23:01.414Z,1.63
2022-11-23T10:25:46.733Z,1.81
2022-11-23T10:28:18.327Z,1.80
2022-11-23T10:30:53.823Z,1.76
2022-11-23T10:33:30.124Z,1.89
2022-11-23T10:35:58.356Z,1.75
2022-11-23T10:38:28.138Z,1.75
2022-11-23T10:41:15.502Z,1.74
2022-11-23T10:44:01.002Z,1.86
2022-11-23T10:46:34.917Z,1.72
2022-11-23T10:49:23.091Z,1.73
2022-11-23T10:52:17.891Z,1.79
2022-11-23T10:54:45.759Z,1.71
2022-11-23T10:57:33.656Z,1.82
2022-11-23T11:00:15.836Z,1.84
2022-11-23T11:02:49.593Z,1.89
2022-11-23T11:08:27.976Z,1.86
2022-11-23T11:11:06.535Z,1.93
2022-11-23T11:13:42.747Z,2.01
2022-11-23T11:16:26.138Z,2.13
2022-11-23T11:18:54.076Z,2.08
2022-11-23T11:21:35.176Z,2.26
2022-11-23T11:24:04.179Z,2.08
2022-11-23T11:26:35.147Z,2.14
2022-11-23T11:29:06.534Z,2.10
2022-11-23T11:31:50.414Z,1.85
2022-11-23T11:34:24.161Z,1.82
2022-11-23T11:37:03.489Z,1.77
2022-11-23T11:39:42.166Z,1.79
2022-11-23T11:42:21.104Z,1.95
2022-11-23T11:44:53.028Z,2.11
2022-11-23T11:47:32.285Z,2.02
2022-11-23T11:50:06.110Z,2.10
2022-11-23T11:52:39.925Z,2.14
2022-11-23T11:55:20.104Z,2.02
2022-11-23T11:58:08.489Z,2.14
2022-11-23T12:00:43.541Z,2.10
2022-11-23T12:03:24.977Z,1.99
2022-11-23T12:05:55.975Z,1.91
2022-11-23T12:08:39.392Z,2.02
2022-11-23T12:11:11.567Z,1.96
2022-11-23T12:13:43.009Z,1.89
2022-11-23T12:16:30.873Z,2.18
2022-11-23T12:19:16.922Z,2.09
2022-11-23T12:22:03.937Z,2.00
2022-11-23T12:25:11.494Z,1.77
2022-11-23T12:27:59.174Z,1.78
2022-11-23T12:30:52.487Z,1.91
2022-11-23T12:33:20.218Z,1.99
2022-11-23T12:36:06.405Z,1.96
2022-11-23T12:39:24.461Z,1.77
2022-11-23T12:42:41.769Z,1.83
2022-11-23T12:45:39.454Z,1.75
2022-11-23T12:48:31.650Z,1.94
2022-11-23T12:51:40.650Z,1.76
2022-11-23T12:54:44.595Z,1.78
2022-11-23T12:57:22.502Z,1.90
2022-11-23T13:00:01.139Z,1.89
2022-11-23T13:02:50.086Z,1.79
2022-11-23T13:05:39.745Z,1.64
2022-11-23T13:08:28.408Z,1.57
2022-11-23T13:11:23.211Z,1.46
2022-11-23T13:14:16.413Z,1.44
2022-11-23T13:16:54.971Z,1.41
2022-11-23T13:19:41.305Z,1.35
2022-11-23T13:22:19.017Z,1.29
2022-11-23T13:25:08.485Z,1.27
2022-11-23T13:27:49.686Z,1.13
2022-11-23T13:33:23.678Z,1.18
2022-11-23T13:36:03.551Z,1.19
2022-11-23T13:38:43.584Z,1.02
2022-11-23T13:41:42.668Z,1.09
2022-11-23T13:44:24.580Z,0.99
2022-11-23T13:47:14.820Z,1.12
2022-11-23T13:49:45.948Z,1.12
2022-11-23T13:52:23.845Z,1.07
2022-11-23T13:55:08.968Z,1.05
2022-11-23T13:57:42.698Z,1.19
2022-11-23T14:00:46.721Z,1.28
2022-11-23T14:03:42.808Z,1.36
2022-11-23T14:06:23.557Z,1.14
2022-11-23T14:09:17.662Z,1.17
2022-11-23T14:11:54.279Z,1.12
2022-11-23T14:14:26.527Z,1.08
2022-11-23T14:17:27.319Z,0.98
2022-11-23T14:20:00.968Z,1.04
2022-11-23T14:22:58.025Z,0.86
2022-11-23T14:25:45.067Z,0.96
2022-11-23T14:28:47.015Z,0.85
2022-11-23T14:31:17.671Z,0.85
2022-11-23T14:33:59.131Z,0.95
2022-11-23T14:36:35.755Z,0.92
2022-11-23T14:39:38.610Z,0.95
2022-11-23T14:42:17.151Z,0.93
2022-11-23T14:44:45.808Z,0.91
2022-11-23T14:47:13.816Z,1.05
2022-11-23T14:49:51.697Z,1.01
2022-11-23T14:52:26.439Z,1.07
2022-11-23T14:54:57.373Z,1.00
2022-11-23T14:57:29.173Z,1.01
2022-11-23T15:00:00.622Z,0.93
2022-11-23T15:02:38.326Z,0.81
2022-11-23T15:05:24.466Z,0.82
2022-11-23T15:08:30.251Z,0.78
2022-11-23T15:11:06.952Z,0.85
2022-11-23T15:13:49.640Z,0.74
2022-11-23T15:16:20.399Z,0.61
2022-11-23T15:18:49.359Z,0.46
2022-11-23T15:21:27.207Z,0.56
2022-11-23T15:23:58.308Z,0.56
2022-11-23T15:29:37.034Z,0.41
2022-11-23T15:32:30.740Z,0.38
2022-11-23T15:35:01.672Z,0.58
2022-11-23T15:37:31.374Z,0.83
2022-11-23T15:39:59.521Z,0.86
2022-11-23T15:42:28.664Z,0.79
2022-11-23T15:44:56.648Z,0.65
2022-11-23T15:47:28.147Z,0.64
2022-11-23T15:50:04.048Z,0.62
2022-11-23T15:52:37.333Z,0.67
2022-11-23T15:55:14.453Z,0.60
2022-11-23T15:57:42.967Z,0.68
2022-11-23T16:00:24.937Z,0.52
2022-11-23T16:02:53.528Z,0.57
2022-11-23T16:05:23.720Z,0.70
2022-11-23T16:08:02.586Z,0.67
2022-11-23T16:10:37.526Z,0.71
2022-11-23T16:13:08.818Z,0.57
2022-11-23T16:15:44.271Z,0.55
2022-11-23T16:18:18.475Z,0.53
2022-11-23T16:20:49.236Z,0.48
2022-11-23T16:23:55.436Z,0.45
2022-11-23T16:26:33.500Z,0.40
2022-11-23T16:29:02.430Z,0.58
2022-11-23T16:31:51.711Z,0.61
2022-11-23T16:34:20.190Z,0.70
2022-11-23T16:36:48.425Z,0.51
2022-11-23T16:39:16.569Z,0.63
2022-11-23T16:41:44.366Z,0.61
2022-11-23T16:44:12.693Z,0.66
2022-11-23T16:46:43.426Z,0.65
2022-11-23T16:49:21.601Z,0.59
2022-11-23T16:51:56.496Z,0.47
2022-11-23T16:54:25.746Z,0.45
2022-11-23T16:56:53.975Z,0.41
2022-11-23T16:59:23.859Z,0.37
2022-11-23T17:01:56.964Z,0.37
2022-11-23T17:04:26.523Z,0.40
2022-11-23T17:06:54.426Z,0.41
2022-11-23T17:09:22.410Z,0.62
2022-11-23T17:11:50.962Z,0.63
2022-11-23T17:14:20.662Z,0.75
2022-11-23T17:16:49.889Z,0.76
2022-11-23T17:19:20.044Z,0.75
2022-11-23T17:21:47.982Z,0.70
2022-11-23T17:24:16.009Z,0.55
2022-11-23T17:26:46.536Z,0.51
2022-11-23T17:29:19.083Z,0.44
2022-11-23T17:31:48.044Z,0.42
2022-11-23T17:34:16.535Z,0.38
2022-11-23T17:36:46.288Z,0.41
2022-11-23T17:39:24.173Z,0.37
2022-11-23T17:41:52.510Z,0.36
2022-11-23T17:44:20.973Z,0.16
2022-11-23T17:46:49.891Z,0.26
2022-11-23T17:49:27.520Z,0.34
2022-11-23T17:51:56.249Z,0.33
2022-11-23T17:54:24.959Z,0.35
2022-11-23T17:56:52.762Z,0.43
2022-11-23T17:59:20.830Z,0.33
2022-11-23T18:01:49.139Z,0.31
2022-11-23T18:04:17.175Z,0.17
2022-11-23T18:06:44.990Z,0.29
2022-11-23T18:09:13.092Z,0.32
2022-11-23T18:11:40.838Z,0.36
2022-11-23T18:14:08.435Z,0.33
2022-11-23T18:16:36.424Z,0.18
2022-11-23T18:19:04.727Z,0.18
2022-11-23T18:21:32.753Z,0.04
2022-11-23T18:24:04.456Z,0.11
2022-11-23T18:26:33.044Z,-0.04
2022-11-23T18:29:00.825Z,-0.04
2022-11-23T18:31:29.055Z,-0.14
2022-11-23T18:33:56.931Z,-0.08
2022-11-23T18:36:25.181Z,0.05
2022-11-23T18:38:53.084Z,-0.04
2022-11-23T18:41:22.647Z,-0.01
2022-11-23T18:43:50.584Z,-0.10
2022-11-23T18:46:21.759Z,-0.18
2022-11-23T18:48:51.054Z,-0.17
2022-11-23T18:51:19.826Z,-0.17
2022-11-23T18:53:48.149Z,-0.17
2022-11-23T18:56:16.563Z,-0.20
2022-11-23T18:58:45.867Z,-0.21
2022-11-23T19:01:19.558Z,-0.22
2022-11-23T19:03:50.346Z,-0.36
2022-11-23T19:06:20.790Z,-0.25
2022-11-23T19:08:50.924Z,-0.31
2022-11-23T19:11:21.414Z,-0.39
2022-11-23T19:13:51.727Z,-0.40
2022-11-23T19:16:23.838Z,-0.51
2022-11-23T19:18:59.560Z,-0.43
2022-11-23T19:21:31.071Z,-0.44
2022-11-23T19:24:00.390Z,-0.20
2022-11-23T19:26:30.119Z,-0.24
2022-11-23T19:28:59.039Z,-0.19
2022-11-23T19:31:29.873Z,-0.40
2022-11-23T19:34:02.375Z,-0.34
2022-11-23T19:36:33.273Z,-0.42
2022-11-23T19:39:00.977Z,-0.15
2022-11-23T19:41:30.805Z,-0.10
2022-11-23T19:44:00.241Z,-0.13
2022-11-23T19:46:30.512Z,-0.29
2022-11-23T19:48:59.283Z,-0.39
2022-11-23T19:51:28.243Z,-0.34
2022-11-23T19:54:01.879Z,-0.47
2022-11-23T19:56:30.225Z,-0.56
2022-11-23T19:59:00.972Z,-0.65
2022-11-23T20:01:32.156Z,-0.74
2022-11-23T20:04:09.602Z,-0.76
2022-11-23T20:06:42.526Z,-0.67
2022-11-23T20:09:13.483Z,-0.78
2022-11-23T20:11:42.420Z,-0.75
2022-11-23T20:14:13.275Z,-0.84
2022-11-23T20:16:41.403Z,-0.76
2022-11-23T20:19:10.346Z,-0.69
2022-11-23T20:21:38.684Z,-0.71
2022-11-23T20:24:13.035Z,-0.78
2022-11-23T20:26:42.312Z,-0.68
2022-11-23T20:29:10.740Z,-0.64
2022-11-23T20:31:39.310Z,-0.63
2022-11-23T20:34:09.461Z,-0.67
2022-11-23T20:36:39.149Z,-0.72
2022-11-23T20:39:09.894Z,-0.68
2022-11-23T20:41:38.837Z,-0.89
2022-11-23T20:44:12.021Z,-0.82
2022-11-23T20:49:30.106Z,-0.86
2022-11-23T20:51:59.562Z,-0.77
2022-11-23T20:54:27.312Z,-0.58
2022-11-23T20:56:55.731Z,-0.67
2022-11-23T20:59:24.414Z,-0.56
2022-11-23T21:01:52.857Z,-0.63
2022-11-23T21:04:20.596Z,-0.66
2022-11-23T21:06:48.642Z,-0.58
2022-11-23T21:09:17.171Z,-0.51
2022-11-23T21:12:03.955Z,-0.65
2022-11-23T21:14:33.090Z,-0.50
2022-11-23T21:17:01.471Z,-0.45
2022-11-23T21:19:33.918Z,-0.59
2022-11-23T21:22:10.971Z,-0.49
2022-11-23T21:24:39.443Z,-0.49
2022-11-23T21:27:12.081Z,-0.50
2022-11-23T21:29:40.545Z,-0.50
2022-11-23T21:32:14.763Z,-0.53
2022-11-23T21:34:43.024Z,-0.60
2022-11-23T21:37:12.648Z,-0.56
2022-11-23T21:39:41.543Z,-0.50
2022-11-23T21:42:10.165Z,-0.29
2022-11-23T21:44:37.931Z,-0.37
2022-11-23T21:47:06.061Z,-0.49
2022-11-23T21:49:33.870Z,-0.49
2022-11-23T21:52:01.896Z,-0.37
2022-11-23T21:54:29.613Z,-0.56
2022-11-23T21:56:57.772Z,-0.45
2022-11-23T21:59:25.709Z,-0.48
2022-11-23T22:08:13.643Z,-0.62
2022-11-23T22:10:37.951Z,-0.54
2022-11-23T22:13:06.013Z,-0.46
2022-11-23T22:15:33.952Z,-0.37
2022-11-23T22:18:02.049Z,-0.57
2022-11-23T22:20:29.976Z,-0.42
2022-11-23T22:22:58.263Z,-0.52
2022-11-23T22:25:26.281Z,-0.38
2022-11-23T22:27:54.438Z,-0.29
2022-11-23T22:30:22.652Z,-0.40
2022-11-23T22:32:50.799Z,-0.36
2022-11-23T22:35:18.866Z,-0.29
2022-11-23T22:37:47.548Z,-0.42
2022-11-23T22:40:15.627Z,-0.37
2022-11-23T22:42:44.265Z,-0.20
2022-11-23T22:45:12.330Z,-0.25
2022-11-23T22:47:40.385Z,-0.28
2022-11-23T22:50:08.643Z,-0.32
2022-11-23T22:52:36.728Z,-0.29
2022-11-23T22:55:04.918Z,-0.35
2022-11-23T22:57:33.209Z,-0.23
2022-11-23T23:00:00.994Z,-0.28
2022-11-23T23:02:30.233Z,-0.30
2022-11-23T23:04:58.384Z,-0.30
2022-11-23T23:07:26.675Z,-0.43
2022-11-23T23:09:54.568Z,-0.22
2022-11-23T23:12:22.647Z,-0.34
2022-11-23T23:14:50.640Z,-0.26
2022-11-23T23:17:18.744Z,-0.46
2022-11-23T23:19:47.064Z,-0.36
2022-11-23T23:22:15.225Z,-0.29
2022-11-23T23:24:43.130Z,-0.26
2022-11-23T23:27:11.179Z,-0.34
2022-11-23T23:29:39.017Z,-0.26
2022-11-23T23:32:07.163Z,-0.46
2022-11-23T23:34:35.285Z,-0.26
2022-11-23T23:37:03.506Z,-0.32
2022-11-23T23:39:31.334Z,-0.36
2022-11-23T23:41:59.387Z,-0.31
2022-11-23T23:44:27.318Z,-0.13
2022-11-23T23:46:55.414Z,-0.15
2022-11-23T23:49:24.639Z,-0.24
2022-11-23T23:51:52.778Z,-0.31
2022-11-23T23:54:20.546Z,-0.34
2022-11-23T23:56:48.667Z,-0.31
2022-11-23T23:59:16.543Z,-0.12
